Time;durP1;ratioP1;P1;durP2;ratioP2;P2;SDS_P1;SDS_P2;PMS_P1;PMS_P2;Temp;Humidity;BMP_temperature;BMP_pressure;BME280_temperature;BME280_humidity;BME280_pressure;Samples;Min_cycle;Max_cycle;Signal;HPM_P1;HPM_P2
2023/08/21 00:01:45;;;;;;;;;;;;;;;16.18;100.00;101942.25;7393221;19;19929;-40
2023/08/21 00:04:14;;;;;;;;;;;;;;;16.20;100.00;101932.75;7365956;19;19915;-37
2023/08/21 00:06:44;;;;;;;;;;;;;;;16.15;100.00;101929.13;7393203;19;19933;-37
2023/08/21 00:09:15;;;;;;;;;;;;;;;16.17;100.00;101932.66;7364541;19;19930;-38
2023/08/21 00:11:45;;;;;;;;;;;;;;;16.16;100.00;101931.75;7392382;19;19938;-38
2023/08/21 00:14:14;;;;;;;;;;;;;;;16.16;100.00;101930.91;7367550;19;19925;-39
2023/08/21 00:16:43;;;;;;;;;;;;;;;16.27;100.00;101937.41;7391944;19;20265;-38
2023/08/21 00:19:13;;;;;;;;;;;;;;;16.18;100.00;101934.44;7364917;19;20579;-38
2023/08/21 00:21:42;;;;;;;;;;;;;;;16.21;100.00;101931.97;7392111;19;20712;-38
2023/08/21 00:24:12;;;;;;;;;;;;;;;16.08;100.00;101934.91;7365800;19;19918;-38
2023/08/21 00:26:43;;;;;;;;;;;;;;;16.01;100.00;101941.63;7392246;19;19918;-38
2023/08/21 00:29:13;;;;;;;;;;;;;;;15.99;100.00;101931.13;7365666;19;19922;-38
2023/08/21 00:31:42;;;;;;;;;;;;;;;16.01;100.00;101937.28;7391821;19;20334;-39
2023/08/21 00:34:11;;;;;;;;;;;;;;;16.04;100.00;101934.81;7366407;19;19925;-38
2023/08/21 00:36:41;;;;;;;;;;;;;;;16.04;100.00;101937.41;7393047;19;19929;-37
2023/08/21 00:39:10;;;;;;;;;;;;;;;15.93;100.00;101934.41;7366006;19;19959;-37
2023/08/21 00:41:40;;;;;;;;;;;;;;;15.98;100.00;101931.97;7392034;19;20352;-35
2023/08/21 00:44:12;;;;;;;;;;;;;;;16.00;100.00;101934.63;7367758;19;19970;-36
2023/08/21 00:46:41;;;;;;;;;;;;;;;15.99;100.00;101938.94;7392865;19;19927;-38
2023/08/21 00:49:11;;;;;;;;;;;;;;;15.99;100.00;101936.34;7366381;19;19919;-38
2023/08/21 00:51:40;;;;;;;;;;;;;;;15.97;100.00;101939.72;7391888;19;20260;-37
2023/08/21 00:54:09;;;;;;;;;;;;;;;15.88;100.00;101940.22;7366093;19;19914;-37
2023/08/21 00:56:39;;;;;;;;;;;;;;;15.86;100.00;101947.06;7394396;19;19925;-36
2023/08/21 00:59:08;;;;;;;;;;;;;;;15.80;100.00;101943.41;7364792;19;19915;-38
2023/08/21 01:01:40;;;;;;;;;;;;;;;15.74;100.00;101935.34;7390795;19;19926;-37
2023/08/21 01:04:10;;;;;;;;;;;;;;;15.73;100.00;101944.00;7365943;19;20014;-37
2023/08/21 01:06:39;;;;;;;;;;;;;;;15.77;100.00;101943.28;7391872;19;19922;-37
2023/08/21 01:09:10;;;;;;;;;;;;;;;15.71;100.00;101943.06;7366440;19;20386;-37
2023/08/21 01:11:41;;;;;;;;;;;;;;;15.71;100.00;101939.56;7392208;19;19933;-38
2023/08/21 01:14:13;;;;;;;;;;;;;;;15.72;100.00;101939.63;7365821;19;19910;-37
2023/08/21 01:16:45;;;;;;;;;;;;;;;15.71;100.00;101950.84;7392335;19;19919;-37
2023/08/21 01:19:17;;;;;;;;;;;;;;;15.72;100.00;101954.34;7366741;19;20640;-37
2023/08/21 01:21:46;;;;;;;;;;;;;;;15.70;100.00;101956.91;7391815;19;19926;-37
2023/08/21 01:24:18;;;;;;;;;;;;;;;15.71;100.00;101958.66;7366598;19;19929;-37
2023/08/21 01:26:48;;;;;;;;;;;;;;;15.72;100.00;101954.34;7392485;19;19926;-37
2023/08/21 01:29:17;;;;;;;;;;;;;;;15.65;100.00;101958.41;7365117;19;19986;-36
2023/08/21 01:31:47;;;;;;;;;;;;;;;15.56;100.00;101958.94;7390777;19;20356;-37
2023/08/21 01:34:16;;;;;;;;;;;;;;;15.52;100.00;101955.31;7364859;19;19914;-38
2023/08/21 01:36:46;;;;;;;;;;;;;;;15.55;100.00;101959.75;7391779;19;20360;-38
2023/08/21 01:39:15;;;;;;;;;;;;;;;15.62;100.00;101958.28;7364227;19;20407;-38
2023/08/21 01:41:47;;;;;;;;;;;;;;;15.49;100.00;101965.59;7387447;19;19926;-38
2023/08/21 01:44:16;;;;;;;;;;;;;;;15.41;100.00;101968.69;7368569;19;19925;-37
2023/08/21 01:46:46;;;;;;;;;;;;;;;15.34;100.00;101972.78;7392975;19;19919;-37
2023/08/21 01:49:15;;;;;;;;;;;;;;;15.33;100.00;101974.47;7366332;19;19914;-37
2023/08/21 01:51:44;;;;;;;;;;;;;;;15.39;100.00;101976.47;7391609;19;19927;-37
2023/08/21 01:54:14;;;;;;;;;;;;;;;15.32;100.00;101964.00;7366466;19;19914;-39
2023/08/21 01:56:43;;;;;;;;;;;;;;;15.38;100.00;101965.16;7392440;19;19930;-37
2023/08/21 01:59:15;;;;;;;;;;;;;;;15.29;100.00;101964.78;7365622;19;19982;-37
2023/08/21 02:01:44;;;;;;;;;;;;;;;15.27;100.00;101968.16;7392361;19;19978;-37
2023/08/21 02:04:14;;;;;;;;;;;;;;;15.30;100.00;101957.84;7366150;19;20395;-38
2023/08/21 02:06:44;;;;;;;;;;;;;;;15.36;100.00;101955.50;7394125;19;19941;-37
2023/08/21 02:09:13;;;;;;;;;;;;;;;15.47;100.00;101969.84;7364935;19;19926;-38
2023/08/21 02:11:42;;;;;;;;;;;;;;;15.43;100.00;101960.13;7391836;19;19919;-38
2023/08/21 02:14:12;;;;;;;;;;;;;;;15.36;100.00;101955.50;7368140;19;19974;-37
2023/08/21 02:16:43;;;;;;;;;;;;;;;15.31;100.00;101957.94;7398237;19;19926;-37
2023/08/21 02:19:13;;;;;;;;;;;;;;;15.22;100.00;101958.44;7372089;19;19915;-37
2023/08/21 02:21:42;;;;;;;;;;;;;;;15.32;100.00;101969.19;7397966;19;19918;-37
2023/08/21 02:24:11;;;;;;;;;;;;;;;15.37;100.00;101968.59;7372804;19;19921;-36
2023/08/21 02:26:42;;;;;;;;;;;;;;;15.29;100.00;101975.19;7400801;19;19933;-37
2023/08/21 02:29:11;;;;;;;;;;;;;;;15.28;100.00;101973.38;7371897;19;19918;-36
2023/08/21 02:31:43;;;;;;;;;;;;;;;15.31;100.00;101972.63;7397312;19;19932;-40
2023/08/21 02:34:13;;;;;;;;;;;;;;;15.34;100.00;101973.66;7371708;19;19933;-38
2023/08/21 02:36:42;;;;;;;;;;;;;;;15.29;100.00;101974.28;7397597;19;19982;-37
2023/08/21 02:39:11;;;;;;;;;;;;;;;15.32;100.00;101974.41;7372138;19;20351;-37
2023/08/21 02:41:41;;;;;;;;;;;;;;;15.18;100.00;101974.72;7397043;19;19940;-37
2023/08/21 02:44:10;;;;;;;;;;;;;;;15.19;100.00;101976.53;7373103;19;19990;-37
2023/08/21 02:46:39;;;;;;;;;;;;;;;15.14;100.00;101980.63;7397501;19;19927;-37
2023/08/21 02:49:11;;;;;;;;;;;;;;;15.01;100.00;101984.41;7371320;19;19930;-38
2023/08/21 02:51:41;;;;;;;;;;;;;;;14.91;100.00;101987.44;7396345;19;20378;-38
2023/08/21 02:54:10;;;;;;;;;;;;;;;14.84;100.00;101986.28;7371681;19;19922;-36
2023/08/21 02:56:40;;;;;;;;;;;;;;;15.02;100.00;101985.31;7397117;19;19922;-37
2023/08/21 02:59:09;;;;;;;;;;;;;;;14.95;100.00;101989.34;7371850;19;19923;-37
2023/08/21 03:01:39;;;;;;;;;;;;;;;14.96;100.00;101981.63;7396913;19;19919;-37
2023/08/21 03:04:08;;;;;;;;;;;;;;;14.85;100.00;101983.75;7370962;19;20359;-37
2023/08/21 03:06:40;;;;;;;;;;;;;;;14.86;100.00;101982.03;7396862;19;20276;-38
2023/08/21 03:09:09;;;;;;;;;;;;;;;14.87;100.00;101986.41;7370759;19;19918;-39
2023/08/21 03:11:39;;;;;;;;;;;;;;;14.80;100.00;101982.66;7398103;19;19925;-38
2023/08/21 03:14:08;;;;;;;;;;;;;;;14.82;100.00;101988.78;7370336;19;19991;-40
2023/08/21 03:16:37;;;;;;;;;;;;;;;14.81;100.00;101980.94;7396411;19;19922;-39
2023/08/21 03:19:07;;;;;;;;;;;;;;;14.84;100.00;101983.69;7370101;19;19931;-37
2023/08/21 03:21:36;;;;;;;;;;;;;;;15.03;100.00;101977.56;7396307;19;19915;-38
2023/08/21 03:24:08;;;;;;;;;;;;;;;14.98;100.00;101979.97;7370695;19;20359;-40
2023/08/21 03:26:38;;;;;;;;;;;;;;;14.89;100.00;101978.69;7394065;19;19927;-37
2023/08/21 03:29:07;;;;;;;;;;;;;;;14.92;100.00;101977.09;7370451;19;19934;-39
2023/08/21 03:31:36;;;;;;;;;;;;;;;15.02;100.00;101980.97;7396190;19;19926;-38
2023/08/21 03:34:06;;;;;;;;;;;;;;;15.01;100.00;101968.81;7369363;19;20260;-36
2023/08/21 03:36:37;;;;;;;;;;;;;;;14.81;100.00;101971.44;7396526;19;19922;-37
2023/08/21 03:39:08;;;;;;;;;;;;;;;14.81;100.00;101986.13;7369825;19;20287;-37
2023/08/21 03:41:38;;;;;;;;;;;;;;;14.81;100.00;101981.84;7396858;19;19926;-38
2023/08/21 03:44:07;;;;;;;;;;;;;;;14.83;100.00;101979.31;7370886;19;19953;-37
2023/08/21 03:46:37;;;;;;;;;;;;;;;14.79;100.00;101983.47;7398356;19;19926;-37
2023/08/21 03:49:06;;;;;;;;;;;;;;;14.78;100.00;101986.00;7369217;19;19942;-37
2023/08/21 03:51:35;;;;;;;;;;;;;;;14.94;100.00;101978.06;7390363;19;19918;-37
2023/08/21 03:54:05;;;;;;;;;;;;;;;14.98;100.00;101974.75;7369441;19;19911;-35
2023/08/21 03:56:37;;;;;;;;;;;;;;;14.90;100.00;101977.84;7395882;19;19919;-37
2023/08/21 03:59:06;;;;;;;;;;;;;;;14.83;100.00;101979.31;7368738;19;20292;-37
2023/08/21 04:01:35;;;;;;;;;;;;;;;14.95;100.00;101974.66;7395428;19;19926;-37
2023/08/21 04:04:05;;;;;;;;;;;;;;;15.06;100.00;101976.78;7369246;19;19915;-37
2023/08/21 04:06:34;;;;;;;;;;;;;;;15.11;100.00;101976.19;7395475;19;20325;-37
2023/08/21 04:09:06;;;;;;;;;;;;;;;14.94;100.00;101978.06;7368934;19;19925;-37
2023/08/21 04:11:38;;;;;;;;;;;;;;;14.92;100.00;101984.03;7394725;19;19918;-36
2023/08/21 04:14:07;;;;;;;;;;;;;;;14.92;100.00;101974.50;7369146;19;19918;-39
2023/08/21 04:16:37;;;;;;;;;;;;;;;14.94;100.00;101977.16;7394692;19;19925;-37
2023/08/21 04:19:07;;;;;;;;;;;;;;;14.98;100.00;101984.28;7368877;19;20299;-39
2023/08/21 04:21:37;;;;;;;;;;;;;;;15.02;100.00;101974.91;7396274;19;19929;-39
2023/08/21 04:24:06;;;;;;;;;;;;;;;14.96;100.00;101986.81;7369133;19;19987;-38
2023/08/21 04:26:38;;;;;;;;;;;;;;;14.88;100.00;101983.00;7394990;19;19915;-38
2023/08/21 04:29:07;;;;;;;;;;;;;;;14.83;100.00;101994.91;7368353;19;19907;-39
2023/08/21 04:31:37;;;;;;;;;;;;;;;14.72;100.00;101992.66;7395002;19;19937;-39
2023/08/21 04:34:06;;;;;;;;;;;;;;;14.74;100.00;102007.44;7369456;19;19911;-37
2023/08/21 04:36:35;;;;;;;;;;;;;;;14.70;100.00;102001.22;7393811;19;19914;-38
2023/08/21 04:39:05;;;;;;;;;;;;;;;14.69;100.00;101996.84;7368183;19;19925;-38
2023/08/21 04:41:34;;;;;;;;;;;;;;;14.66;100.00;102002.78;7394376;19;20264;-37
2023/08/21 04:44:06;;;;;;;;;;;;;;;14.72;100.00;101999.59;7368642;19;19910;-39
2023/08/21 04:46:35;;;;;;;;;;;;;;;14.82;100.00;101994.00;7394357;19;20319;-38
2023/08/21 04:49:05;;;;;;;;;;;;;;;14.80;100.00;101994.75;7369140;19;19918;-37
2023/08/21 04:51:35;;;;;;;;;;;;;;;14.72;100.00;101987.47;7391286;19;19919;-35
2023/08/21 04:54:04;;;;;;;;;;;;;;;14.82;100.00;101990.53;7368054;19;20292;-37
2023/08/21 04:56:33;;;;;;;;;;;;;;;14.78;100.00;101996.41;7394045;19;19933;-37
2023/08/21 04:59:03;;;;;;;;;;;;;;;14.76;100.00;102003.25;7366767;19;19915;-36
2023/08/21 05:01:34;;;;;;;;;;;;;;;14.87;100.00;102001.97;7393663;19;19919;-36
2023/08/21 05:04:04;;;;;;;;;;;;;;;14.86;100.00;102000.22;7367702;19;20002;-37
2023/08/21 05:06:33;;;;;;;;;;;;;;;14.82;100.00;102013.91;7395602;19;19955;-38
2023/08/21 05:09:03;;;;;;;;;;;;;;;14.85;100.00;102008.84;7367647;19;19917;-36
2023/08/21 05:11:32;;;;;;;;;;;;;;;14.82;100.00;102012.19;7394432;19;19977;-37
2023/08/21 05:14:02;;;;;;;;;;;;;;;14.84;100.00;102014.84;7369315;19;20359;-36
2023/08/21 05:16:31;;;;;;;;;;;;;;;14.88;100.00;102008.97;7393061;19;20275;-40
2023/08/21 05:19:03;;;;;;;;;;;;;;;14.87;100.00;102004.59;7368302;19;19926;-38
2023/08/21 05:21:32;;;;;;;;;;;;;;;14.95;100.00;102013.63;7393154;19;19919;-37
2023/08/21 05:24:02;;;;;;;;;;;;;;;14.99;100.00;102015.50;7368508;19;20362;-36
2023/08/21 05:26:31;;;;;;;;;;;;;;;14.98;100.00;102008.53;7392961;19;19915;-35
2023/08/21 05:29:00;;;;;;;;;;;;;;;15.08;100.00;102009.81;7368132;19;19922;-38
2023/08/21 05:31:30;;;;;;;;;;;;;;;15.09;100.00;102002.94;7392780;19;19926;-36
2023/08/21 05:33:59;;;;;;;;;;;;;;;15.17;100.00;102011.06;7368020;19;19936;-38
2023/08/21 05:36:31;;;;;;;;;;;;;;;15.23;100.00;102004.41;7391331;19;19910;-37
2023/08/21 05:39:01;;;;;;;;;;;;;;;15.28;100.00;102003.72;7367511;19;19958;-37
2023/08/21 05:41:30;;;;;;;;;;;;;;;15.35;100.00;102006.66;7392007;19;19930;-38
2023/08/21 05:43:59;;;;;;;;;;;;;;;15.43;100.00;101999.13;7368590;19;19914;-36
2023/08/21 05:46:29;;;;;;;;;;;;;;;15.45;100.00;102000.13;7392104;19;19919;-38
2023/08/21 05:48:58;;;;;;;;;;;;;;;15.54;100.00;101997.00;7368225;19;19927;-41
2023/08/21 05:51:28;;;;;;;;;;;;;;;15.59;100.00;102002.41;7397864;19;20352;-39
2023/08/21 05:54:00;;;;;;;;;;;;;;;15.64;100.00;102000.88;7374052;19;19922;-38
2023/08/21 05:56:29;;;;;;;;;;;;;;;15.67;100.00;102006.19;7398344;19;19924;-39
2023/08/21 05:58:58;;;;;;;;;;;;;;;15.71;100.00;102010.69;7374246;19;20581;-38
2023/08/21 06:01:28;;;;;;;;;;;;;;;15.79;100.00;102013.59;7400370;19;19929;-38
2023/08/21 06:03:57;;;;;;;;;;;;;;;15.79;100.00;102019.69;7374105;19;19922;-38
2023/08/21 06:06:29;;;;;;;;;;;;;;;15.80;100.00;102021.47;7398388;19;19922;-38
2023/08/21 06:09:01;;;;;;;;;;;;;;;15.89;100.00;102030.50;7373806;19;19926;-39
2023/08/21 06:11:30;;;;;;;;;;;;;;;15.96;100.00;102027.34;7397980;19;19922;-38
2023/08/21 06:14:00;;;;;;;;;;;;;;;16.02;100.00;102032.78;7373995;19;20336;-36
2023/08/21 06:16:29;;;;;;;;;;;;;;;16.04;100.00;102036.31;7397901;19;20290;-37
2023/08/21 06:18:59;;;;;;;;;;;;;;;16.13;100.00;102040.09;7373180;19;19919;-36
2023/08/21 06:21:28;;;;;;;;;;;;;;;16.17;100.00;102047.22;7397551;19;19923;-36
2023/08/21 06:23:57;;;;;;;;;;;;;;;16.26;100.00;102052.75;7373510;19;19921;-37
2023/08/21 06:26:29;;;;;;;;;;;;;;;16.33;100.00;102060.00;7388729;19;19922;-36
2023/08/21 06:28:59;;;;;;;;;;;;;;;16.42;100.00;102067.25;7371217;19;19915;-39
2023/08/21 06:31:28;;;;;;;;;;;;;;;16.47;100.00;102070.06;7396473;19;19919;-37
2023/08/21 06:33:57;;;;;;;;;;;;;;;16.53;100.00;102077.22;7373131;19;19914;-37
2023/08/21 06:36:27;;;;;;;;;;;;;;;16.62;100.00;102092.31;7396311;19;19927;-38
2023/08/21 06:38:57;;;;;;;;;;;;;;;16.64;100.00;102101.06;7372277;19;19939;-37
2023/08/21 06:41:27;;;;;;;;;;;;;;;16.66;100.00;102110.72;7395748;19;20621;-36
2023/08/21 06:43:59;;;;;;;;;;;;;;;16.79;100.00;102116.41;7374342;19;19921;-37
2023/08/21 06:46:29;;;;;;;;;;;;;;;16.86;100.00;102124.50;7396980;19;19927;-37
2023/08/21 06:48:58;;;;;;;;;;;;;;;16.96;100.00;102124.84;7372234;19;19915;-38
2023/08/21 06:51:27;;;;;;;;;;;;;;;17.03;100.00;102132.13;7396888;19;19927;-38
2023/08/21 06:53:57;;;;;;;;;;;;;;;17.12;100.00;102139.34;7372366;19;19923;-38
2023/08/21 06:56:26;;;;;;;;;;;;;;;17.21;100.00;102146.63;7396165;19;19915;-35
2023/08/21 06:58:58;;;;;;;;;;;;;;;17.24;100.00;102159.81;7371087;19;19918;-37
2023/08/21 07:01:27;;;;;;;;;;;;;;;17.33;100.00;102167.06;7396173;19;19923;-37
2023/08/21 07:03:57;;;;;;;;;;;;;;;17.36;100.00;102175.91;7373103;19;19937;-36
2023/08/21 07:06:26;;;;;;;;;;;;;;;17.42;100.00;102190.88;7396534;19;19918;-38
2023/08/21 07:08:56;;;;;;;;;;;;;;;17.48;100.00;102192.84;7372124;19;19940;-37
2023/08/21 07:11:25;;;;;;;;;;;;;;;17.60;100.00;102202.81;7394972;19;19918;-36
2023/08/21 07:13:55;;;;;;;;;;;;;;;17.61;100.00;102212.41;7372350;19;19914;-37
2023/08/21 07:16:27;;;;;;;;;;;;;;;17.67;100.00;102220.44;7398419;19;19929;-37
2023/08/21 07:18:56;;;;;;;;;;;;;;;17.71;100.00;102227.56;7371188;19;19925;-36
2023/08/21 07:21:26;;;;;;;;;;;;;;;17.80;100.00;102234.84;7396000;19;19940;-38
2023/08/21 07:24:02;;;;;;;;;;;;;;;17.89;100.00;102245.59;7373233;19;19932;-38
2023/08/21 07:26:35;;;;;;;;;;;;;;;17.95;100.00;102260.59;7395501;19;19952;-36
2023/08/21 07:29:04;;;;;;;;;;;;;;;17.88;100.00;102276.84;7372294;19;19982;-37
2023/08/21 07:31:36;;;;;;;;;;;;;;;17.90;100.00;102288.25;7397873;19;20282;-37
2023/08/21 07:34:06;;;;;;;;;;;;;;;17.99;100.00;102300.75;7368955;19;19922;-38
2023/08/21 07:36:35;;;;;;;;;;;;;;;18.04;100.00;102320.97;7394922;19;19919;-37
2023/08/21 07:39:05;;;;;;;;;;;;;;;18.12;100.00;102336.94;7369771;19;19915;-37
2023/08/21 07:41:34;;;;;;;;;;;;;;;18.13;100.00;102345.66;7395849;19;19922;-38
2023/08/21 07:44:03;;;;;;;;;;;;;;;18.22;100.00;102352.09;7371330;19;19918;-38
2023/08/21 07:46:35;;;;;;;;;;;;;;;18.26;100.00;102353.13;7396227;19;19923;-38
2023/08/21 07:49:05;;;;;;;;;;;;;;;18.27;100.00;102359.22;7369359;19;19942;-38
2023/08/21 07:51:34;;;;;;;;;;;;;;;18.36;100.00;102351.72;7395241;19;19929;-36
2023/08/21 07:54:03;;;;;;;;;;;;;;;18.31;100.00;102345.44;7372019;19;19926;-37
2023/08/21 07:56:35;;;;;;;;;;;;;;;18.37;100.00;102350.88;7394301;19;19926;-37
2023/08/21 07:59:04;;;;;;;;;;;;;;;18.42;100.00;102353.63;7369802;19;19919;-38
2023/08/21 08:01:36;;;;;;;;;;;;;;;18.52;100.00;102344.38;7397294;19;19930;-36
2023/08/21 08:04:06;;;;;;;;;;;;;;;18.59;100.00;102346.38;7367453;19;20387;-37
2023/08/21 08:06:35;;;;;;;;;;;;;;;18.73;100.00;102345.09;7394654;19;19923;-38
2023/08/21 08:09:05;;;;;;;;;;;;;;;18.84;100.00;102347.19;7367607;19;19931;-38
2023/08/21 08:11:35;;;;;;;;;;;;;;;18.93;100.00;102360.59;7393137;19;19926;-37
2023/08/21 08:14:04;;;;;;;;;;;;;;;18.63;100.00;102379.63;7370588;19;19918;-36
2023/08/21 08:16:36;;;;;;;;;;;;;;;18.82;100.00;102385.47;7390680;19;20249;-37
2023/08/21 08:19:06;;;;;;;;;;;;;;;19.00;100.00;102393.03;7367795;19;19975;-37
2023/08/21 08:21:36;;;;;;;;;;;;;;;19.08;100.00;102394.19;7393259;19;19930;-37
2023/08/21 08:24:05;;;;;;;;;;;;;;;19.06;100.00;102406.34;7367581;19;19982;-37
2023/08/21 08:26:35;;;;;;;;;;;;;;;19.10;100.00;102407.31;7394120;19;19922;-37
2023/08/21 08:29:04;;;;;;;;;;;;;;;19.18;100.00;102403.25;7369859;19;19930;-37
2023/08/21 08:31:38;;;;;;;;;;;;;;;19.28;100.00;102407.91;7394635;19;19915;-37
2023/08/21 08:34:08;;;;;;;;;;;;;;;19.35;100.00;102415.97;7366792;19;19915;-36
2023/08/21 08:36:37;;;;;;;;;;;;;;;19.49;100.00;102406.81;7394275;19;19923;-39
2023/08/21 08:39:07;;;;;;;;;;;;;;;19.48;100.00;102420.75;7367133;19;19921;-36
2023/08/21 08:41:39;;;;;;;;;;;;;;;19.21;100.00;102421.66;7394280;19;19911;-37
2023/08/21 08:44:08;;;;;;;;;;;;;;;19.30;100.00;102421.94;7368209;19;19911;-37
2023/08/21 08:46:40;;;;;;;;;;;;;;;19.42;100.00;102431.91;7394125;19;19926;-38
2023/08/21 08:49:09;;;;;;;;;;;;;;;19.47;100.00;102439.91;7364869;19;19923;-37
2023/08/21 08:51:39;;;;;;;;;;;;;;;19.30;100.00;102442.00;7390601;19;19943;-36
2023/08/21 08:54:08;;;;;;;;;;;;;;;19.24;100.00;102447.94;7367020;19;19914;-37
2023/08/21 08:56:37;;;;;;;;;;;;;;;19.37;100.00;102445.66;7392926;19;19922;-37
2023/08/21 08:59:08;;;;;;;;;;;;;;;19.49;100.00;102447.81;7366115;19;19922;-37
2023/08/21 09:01:40;;;;;;;;;;;;;;;19.70;100.00;102455.44;7390443;19;19930;-38
2023/08/21 09:04:09;;;;;;;;;;;;;;;19.88;100.00;102456.84;7366941;19;19971;-37
2023/08/21 09:06:39;;;;;;;;;;;;;;;19.88;100.00;102462.09;7393272;19;19931;-37
2023/08/21 09:09:12;;;;;;;;;;;;;;;19.86;100.00;102467.28;7366319;19;20271;-36
2023/08/21 09:11:44;;;;;;;;;;;;;;;19.86;100.00;102469.91;7390066;19;19933;-42
2023/08/21 09:14:14;;;;;;;;;;;;;;;19.94;100.00;102481.47;7367610;19;19915;-37
2023/08/21 09:17:00;;;;;;;;;;;;;;;20.07;100.00;102497.59;7389444;19;19998;-37
2023/08/21 09:19:29;;;;;;;;;;;;;;;20.31;100.00;102509.66;7364920;19;19919;-37
2023/08/21 09:21:58;;;;;;;;;;;;;;;20.21;100.00;102518.97;7391564;19;19928;-37
2023/08/21 09:24:28;;;;;;;;;;;;;;;20.31;100.00;102531.50;7362198;19;19929;-37
2023/08/21 09:26:59;;;;;;;;;;;;;;;20.33;100.00;102542.03;7388529;19;19921;-37
2023/08/21 09:29:29;;;;;;;;;;;;;;;20.39;100.00;102549.19;7365568;19;19929;-37
2023/08/21 09:32:01;;;;;;;;;;;;;;;20.41;100.00;102553.63;7391358;19;19919;-37
2023/08/21 09:34:30;;;;;;;;;;;;;;;20.30;100.00;102555.94;7364477;19;20288;-36
2023/08/21 09:37:00;;;;;;;;;;;;;;;20.35;100.00;102562.19;7395021;19;19933;-36
2023/08/21 09:39:35;;;;;;;;;;;;;;;20.24;100.00;102563.59;7365279;19;19929;-37
2023/08/21 09:42:07;;;;;;;;;;;;;;;20.29;100.00;102559.41;7389260;19;19927;-37
2023/08/21 09:44:41;;;;;;;;;;;;;;;20.25;100.00;102562.75;7367223;19;19926;-36
2023/08/21 09:47:13;;;;;;;;;;;;;;;20.22;100.00;102581.94;7391621;19;19922;-37
2023/08/21 09:49:42;;;;;;;;;;;;;;;20.44;100.00;102573.78;7368020;19;19924;-37
2023/08/21 09:52:13;;;;;;;;;;;;;;;20.50;100.00;102579.22;7390853;19;19931;-36
2023/08/21 09:54:42;;;;;;;;;;;;;;;20.54;100.00;102581.09;7368234;19;19922;-37
2023/08/21 09:57:12;;;;;;;;;;;;;;;20.76;100.00;102579.06;7389256;19;19915;-37
2023/08/21 09:59:41;;;;;;;;;;;;;;;20.84;100.00;102580.22;7363238;19;20259;-37
2023/08/21 10:02:13;;;;;;;;;;;;;;;20.75;100.00;102574.69;7389737;19;19918;-37
2023/08/21 10:04:43;;;;;;;;;;;;;;;20.76;100.00;102558.09;7366691;19;20841;-37
2023/08/21 10:07:16;;;;;;;;;;;;;;;20.86;100.00;102568.03;7388462;19;19922;-38
2023/08/21 10:09:45;;;;;;;;;;;;;;;20.91;100.00;102555.03;7367747;19;20009;-37
2023/08/21 10:12:15;;;;;;;;;;;;;;;20.78;100.00;102561.66;7388709;19;19933;-37
2023/08/21 10:14:44;;;;;;;;;;;;;;;20.94;100.00;102530.63;7364677;19;20249;-36
2023/08/21 10:17:16;;;;;;;;;;;;;;;21.01;100.00;102543.06;7388024;19;19926;-37
2023/08/21 10:19:49;;;;;;;;;;;;;;;20.84;100.00;102512.03;7362602;19;19923;-37
2023/08/21 10:22:18;;;;;;;;;;;;;;;21.15;100.00;102539.06;7388650;19;19927;-37
2023/08/21 10:24:48;;;;;;;;;;;;;;;21.31;100.00;102502.72;7366138;19;20364;-37
2023/08/21 10:27:17;;;;;;;;;;;;;;;21.25;100.00;102498.22;7389682;19;19918;-37
2023/08/21 10:29:49;;;;;;;;;;;;;;;21.14;100.00;102513.69;7367134;19;19918;-37
2023/08/21 10:32:21;;;;;;;;;;;;;;;21.29;100.00;102521.03;7388368;19;19922;-37
2023/08/21 10:34:53;;;;;;;;;;;;;;;21.41;100.00;102398.81;7365080;19;19966;-36
2023/08/21 10:37:23;;;;;;;;;;;;;;;21.40;100.00;102455.69;7396349;19;19936;-37
2023/08/21 10:39:57;;;;;;;;;;;;;;;21.30;100.00;102448.44;7369282;19;19967;-36
2023/08/21 10:42:42;;;;;;;;;;;;;;;21.28;100.00;102439.66;7395742;19;20343;-36
2023/08/21 10:45:14;;;;;;;;;;;;;;;21.56;100.00;102471.78;7374087;19;19927;-40
2023/08/21 10:47:47;;;;;;;;;;;;;;;21.48;100.00;102415.59;7370883;19;19930;-38
2023/08/21 10:50:16;;;;;;;;;;;;;;;21.75;100.00;102454.75;7392314;19;19918;-38
2023/08/21 10:52:46;;;;;;;;;;;;;;;21.91;100.00;102358.78;7371169;19;19914;-40
2023/08/21 10:55:18;;;;;;;;;;;;;;;21.95;100.00;102351.84;7392794;19;19926;-39
2023/08/21 10:57:48;;;;;;;;;;;;;;;21.98;100.00;102333.50;7374385;19;20299;-39
2023/08/21 11:00:20;;;;;;;;;;;;;;;21.81;100.00;102310.44;7392925;19;20249;-39
2023/08/21 11:02:52;;;;;;;;;;;;;;;21.99;100.00;102278.34;7370141;19;19922;-38
2023/08/21 11:05:22;;;;;;;;;;;;;;;22.18;100.00;102259.38;7392504;19;19918;-39
2023/08/21 11:07:51;;;;;;;;;;;;;;;22.29;100.00;102238.56;7371624;19;19918;-38
2023/08/21 11:10:21;;;;;;;;;;;;;;;22.21;100.00;102230.53;7394362;19;19915;-40
2023/08/21 11:12:51;;;;;;;;;;;;;;;22.31;100.00;102190.38;7373415;19;19978;-38
2023/08/21 11:15:20;;;;;;;;;;;;;;;22.21;100.00;102183.25;7392286;19;19987;-38
2023/08/21 11:18:01;;;;;;;;;;;;;;;22.07;100.00;102086.69;7369688;19;19929;-39
2023/08/21 11:20:31;;;;;;;;;;;;;;;22.17;100.00;102082.44;7391603;19;20377;-38
2023/08/21 11:23:02;;;;;;;;;;;;;;;22.29;100.00;102044.06;7369797;19;19939;-39
2023/08/21 11:25:31;;;;;;;;;;;;;;;22.31;100.00;101963.47;7392153;19;19925;-38
2023/08/21 11:28:02;;;;;;;;;;;;;;;22.40;100.00;101934.66;7368847;19;19923;-39
2023/08/21 11:30:32;;;;;;;;;;;;;;;22.49;100.00;101963.69;7391741;19;19930;-38
2023/08/21 11:33:11;;;;;;;;;;;;;;;22.16;100.00;101924.75;7365698;19;19923;-40
2023/08/21 11:35:41;;;;;;;;;;;;;;;22.28;100.00;101916.09;7393819;19;19921;-38
2023/08/21 11:38:17;;;;;;;;;;;;;;;22.37;100.00;101889.94;7365442;19;19986;-39
2023/08/21 11:40:53;;;;;;;;;;;;;;;22.45;100.00;101888.25;7387601;19;19927;-39
2023/08/21 11:43:23;;;;;;;;;;;;;;;22.30;100.00;101919.66;7368986;19;19939;-42
2023/08/21 11:45:52;;;;;;;;;;;;;;;22.36;100.00;101935.50;7391618;19;19926;-39
2023/08/21 11:48:30;;;;;;;;;;;;;;;22.34;100.00;101958.22;7367064;19;19934;-39
2023/08/21 11:50:59;;;;;;;;;;;;;;;22.44;100.00;101965.38;7388042;19;20244;-38
2023/08/21 11:53:35;;;;;;;;;;;;;;;22.54;100.00;101968.16;7365621;19;19927;-39
2023/08/21 11:56:04;;;;;;;;;;;;;;;22.51;100.00;101977.75;7388823;19;19927;-40
2023/08/21 11:58:34;;;;;;;;;;;;;;;22.26;100.00;101982.69;7367058;19;19982;-38
2023/08/21 12:01:07;;;;;;;;;;;;;;;22.32;100.00;101988.88;7389908;19;19918;-40
2023/08/21 12:03:42;;;;;;;;;;;;;;;22.56;100.00;101948.00;7364943;19;19922;-40
2023/08/21 12:06:12;;;;;;;;;;;;;;;22.57;100.00;101940.13;7392030;19;19921;-39
2023/08/21 12:08:42;;;;;;;;;;;;;;;22.48;100.00;101887.41;7365217;19;19923;-39
2023/08/21 12:11:11;;;;;;;;;;;;;;;22.73;100.00;101845.59;7388679;19;19926;-40
2023/08/21 12:13:41;;;;;;;;;;;;;;;22.85;100.00;101836.91;7365322;19;19994;-39
2023/08/21 12:16:10;;;;;;;;;;;;;;;22.71;100.00;101827.16;7389288;19;19930;-39
2023/08/21 12:18:42;;;;;;;;;;;;;;;22.75;100.00;101818.44;7365933;19;19923;-37
2023/08/21 12:21:12;;;;;;;;;;;;;;;23.11;100.00;101850.25;7388336;19;19922;-39
2023/08/21 12:23:41;;;;;;;;;;;;;;;23.30;100.00;101772.34;7365599;19;19933;-39
2023/08/21 12:26:10;;;;;;;;;;;;;;;23.63;100.00;101747.88;7389759;19;19926;-39
2023/08/21 12:28:40;;;;;;;;;;;;;;;23.69;100.00;101732.09;7365977;19;19919;-39
2023/08/21 12:31:09;;;;;;;;;;;;;;;24.14;100.00;101711.06;7388617;19;19927;-40
2023/08/21 12:33:39;;;;;;;;;;;;;;;24.35;100.00;101760.28;7368914;19;19946;-40
2023/08/21 12:38:38;;;;;;;;;;;;;;;24.40;100.00;101784.91;7367344;19;19918;-40
2023/08/21 12:41:08;;;;;;;;;;;;;;;24.68;100.00;101821.81;7389728;19;19922;-40
2023/08/21 12:43:37;;;;;;;;;;;;;;;25.12;100.00;101770.78;7370390;19;19945;-39
2023/08/21 12:46:06;;;;;;;;;;;;;;;25.54;100.00;101750.38;7393681;19;20336;-39